Terminal Aerodrome Forecast
Issued by NWS

Home | Current Version | Previous Version | Text Only | Print | Product List | Glossary On
Versions: 1 2 3 4 5 6 7 8 9 10 11 12 13 14 15 16 17
000
FTUS42 KFFC 261331 AAA
TAFPDK
TAF AMD
KPDK 261331Z 2614/2712 14004KT 6SM BR OVC008
     FM261600 15006KT P6SM OVC015
     FM261800 16007KT P6SM -SHRA OVC035
      TEMPO 2621/2624 3SM TSRA BR OVC015CB
     FM270000 15006KT P6SM VCSH SCT030 BKN045
     FM270600 12005KT P6SM BKN009=

USA.gov is the U.S. government's official web portal to all federal, state and local government web resources and services.